Sicklerville, NJ (08081)

10:26 PM EDT on July 05, 2015 (GMT -0400)
Wyndam Hill | | Change Station
CLOSE
Current Station
Personal Weather Station
Location: Winslow Township, NJ
Elevation: 154 ft
Nearby Weather Stations

Elev 154 ft 39.74 °N, 74.99 °W | Updated 5 minutes ago

Partly Cloudy
Partly Cloudy
72.1 °F
Feels Like 74 °F
N
1.6
Wind Variable Wind from East

Today
High -- | Low -- °F
--% Chance of Precip.
Yesterday
High -- | Low -- °F
Precip. -- in
5:37 AM 8:31 PM
Waning Gibbous, 80% visible
Pressure 30.13 in
Visibility 10.0 miles
Clouds Clear
Heat Index 74 °F
Dew Point 64 °F
Humidity 75%
Rainfall in
Snow Depth Not available.
UV 0 out of 12
Pollen 3.40 out of 12
Air Quality Not available.
Flu Activity Not available.
METAR KVAY 060154Z AUTO 00000KT 10SM CLR 23/19 A3013 RMK AO2 SLP203 T02280194

More Conditions Fewer Conditions

Pressure 30.13 in
Visibility 10.0 miles
Clouds Clear
Heat Index 74 °F
Dew Point 64 °F
Humidity 75%
Rainfall in
Snow Depth Not available.
UV 0 out of 12
Pollen 3.40 out of 12
Air Quality Not available.
Flu Activity Not available.
METAR KVAY 060154Z AUTO 00000KT 10SM CLR 23/19 A3013 RMK AO2 SLP203 T02280194

More Conditions Fewer Conditions

10-Day Weather Forecast

×

Almanac

Astronomy

Jul. 05, 2015 Rise Set
Actual Time
Civil Twilight
Nautical Twilight
Astronomical Twilight
Moon
Length of Visible Light
Length of Day
Tomorrow will be .
, % of the Moon is Illuminated

Today's Extremes

State Highs State Lows

Community

WunderPhotos

Upload Photos

1,835,451 photos uploaded!

WunderBlogs® & News

Nearby

Air Quality

  Air Quality AQ Index Pollutant
Not available.

Snow Depth

Station Depth Elevation

Earthquake Activity

City Distance Mag. Time & Date
Minimum magnitude displayed is 2.5.

Coastal Water Temperatures

Place Temperature

Stations

Nearby Weather Stations

Station Location Temp. Windchill Dew Point Humidity Wind Precip. Elev Updated Type